sensor_id;sensor_type;location;lat;lon;timestamp;pressure;altitude;pressure_sealevel;temperature;humidity
10135;BME280;5107;48.850;8.924;2022-10-31T00:01:22;97306.25;;;13.93;77.08
10135;BME280;5107;48.850;8.924;2022-10-31T00:03:50;97300.84;;;13.86;77.03
10135;BME280;5107;48.850;8.924;2022-10-31T00:06:17;97307.19;;;13.77;77.77
10135;BME280;5107;48.850;8.924;2022-10-31T00:08:45;97310.81;;;13.76;77.43
10135;BME280;5107;48.850;8.924;2022-10-31T00:11:12;97309.88;;;13.69;77.04
10135;BME280;5107;48.850;8.924;2022-10-31T00:13:39;97305.91;;;13.65;77.60
10135;BME280;5107;48.850;8.924;2022-10-31T00:16:14;97311.25;;;13.57;77.85
10135;BME280;5107;48.850;8.924;2022-10-31T00:18:43;97305.16;;;13.56;78.02
10135;BME280;5107;48.850;8.924;2022-10-31T00:21:10;97300.69;;;13.57;78.53
10135;BME280;5107;48.850;8.924;2022-10-31T00:23:37;97303.31;;;13.57;79.38
10135;BME280;5107;48.850;8.924;2022-10-31T00:26:04;97313.59;;;13.52;78.08
10135;BME280;5107;48.850;8.924;2022-10-31T00:28:33;97305.69;;;13.52;79.03
10135;BME280;5107;48.850;8.924;2022-10-31T00:31:00;97303.84;;;13.52;78.69
10135;BME280;5107;48.850;8.924;2022-10-31T00:33:28;97309.03;;;13.46;79.34
10135;BME280;5107;48.850;8.924;2022-10-31T00:35:56;97309.53;;;13.41;78.39
10135;BME280;5107;48.850;8.924;2022-10-31T00:38:24;97303.41;;;13.41;79.06
10135;BME280;5107;48.850;8.924;2022-10-31T00:40:51;97301.59;;;13.41;79.55
10135;BME280;5107;48.850;8.924;2022-10-31T00:43:18;97303.56;;;13.39;79.39
10135;BME280;5107;48.850;8.924;2022-10-31T00:45:45;97307.41;;;13.37;79.15
10135;BME280;5107;48.850;8.924;2022-10-31T00:48:12;97307.75;;;13.34;79.25
10135;BME280;5107;48.850;8.924;2022-10-31T00:50:40;97300.31;;;13.37;78.76
10135;BME280;5107;48.850;8.924;2022-10-31T00:53:08;97303.78;;;13.38;78.57
10135;BME280;5107;48.850;8.924;2022-10-31T00:55:36;97303.44;;;13.33;78.66
10135;BME280;5107;48.850;8.924;2022-10-31T00:58:03;97300.47;;;13.36;77.97
10135;BME280;5107;48.850;8.924;2022-10-31T01:00:30;97303.94;;;13.36;77.77
10135;BME280;5107;48.850;8.924;2022-10-31T01:02:57;97311.34;;;13.41;78.55
10135;BME280;5107;48.850;8.924;2022-10-31T01:05:24;97309.88;;;13.38;78.66
10135;BME280;5107;48.850;8.924;2022-10-31T01:07:51;97306.41;;;13.38;78.96
10135;BME280;5107;48.850;8.924;2022-10-31T01:10:20;97307.56;;;13.35;79.54
10135;BME280;5107;48.850;8.924;2022-10-31T01:12:49;97293.53;;;13.35;80.08
10135;BME280;5107;48.850;8.924;2022-10-31T01:15:18;97302.44;;;13.34;79.22
10135;BME280;5107;48.850;8.924;2022-10-31T01:17:46;97299.81;;;13.34;79.45
10135;BME280;5107;48.850;8.924;2022-10-31T01:20:15;97303.97;;;13.28;79.91
10135;BME280;5107;48.850;8.924;2022-10-31T01:22:42;97300.50;;;13.27;80.47
10135;BME280;5107;48.850;8.924;2022-10-31T01:25:10;97301.53;;;13.18;78.97
10135;BME280;5107;48.850;8.924;2022-10-31T01:27:38;97297.53;;;13.22;79.24
10135;BME280;5107;48.850;8.924;2022-10-31T01:30:08;97293.06;;;13.23;79.35
10135;BME280;5107;48.850;8.924;2022-10-31T01:32:35;97291.91;;;13.25;79.13
10135;BME280;5107;48.850;8.924;2022-10-31T01:35:02;97296.22;;;13.26;79.09
10135;BME280;5107;48.850;8.924;2022-10-31T01:37:30;97297.91;;;13.19;79.24
10135;BME280;5107;48.850;8.924;2022-10-31T01:39:58;97286.84;;;13.16;80.60
10135;BME280;5107;48.850;8.924;2022-10-31T01:42:25;97298.59;;;13.13;80.15
10135;BME280;5107;48.850;8.924;2022-10-31T01:44:59;97293.09;;;13.15;79.94
10135;BME280;5107;48.850;8.924;2022-10-31T01:47:42;97294.44;;;13.11;79.81
10135;BME280;5107;48.850;8.924;2022-10-31T01:50:20;97291.97;;;13.09;79.66
10135;BME280;5107;48.850;8.924;2022-10-31T01:52:52;97295.41;;;13.10;79.20
10135;BME280;5107;48.850;8.924;2022-10-31T01:55:23;97291.97;;;13.09;78.44
10135;BME280;5107;48.850;8.924;2022-10-31T01:57:57;97284.03;;;13.17;77.61
10135;BME280;5107;48.850;8.924;2022-10-31T02:00:27;97285.84;;;13.09;79.76
10135;BME280;5107;48.850;8.924;2022-10-31T02:02:54;97290.16;;;13.02;79.72
10135;BME280;5107;48.850;8.924;2022-10-31T02:05:26;97284.41;;;12.90;78.98
10135;BME280;5107;48.850;8.924;2022-10-31T02:07:58;97283.09;;;12.94;79.39
10135;BME280;5107;48.850;8.924;2022-10-31T02:10:30;97289.06;;;12.88;78.74
10135;BME280;5107;48.850;8.924;2022-10-31T02:13:01;97291.22;;;12.76;79.80
10135;BME280;5107;48.850;8.924;2022-10-31T02:15:31;97293.88;;;12.68;80.90
10135;BME280;5107;48.850;8.924;2022-10-31T02:17:58;97290.94;;;12.63;81.06
10135;BME280;5107;48.850;8.924;2022-10-31T02:20:29;97292.78;;;12.54;80.55
10135;BME280;5107;48.850;8.924;2022-10-31T02:23:36;97302.50;;;12.54;81.28
10135;BME280;5107;48.850;8.924;2022-10-31T02:26:44;97290.78;;;12.48;81.29
10135;BME280;5107;48.850;8.924;2022-10-31T02:29:45;97285.03;;;12.53;80.36
10135;BME280;5107;48.850;8.924;2022-10-31T02:32:25;97282.22;;;12.54;80.08
10135;BME280;5107;48.850;8.924;2022-10-31T02:34:59;97291.28;;;12.44;79.81
10135;BME280;5107;48.850;8.924;2022-10-31T02:37:37;97286.34;;;12.33;80.25
10135;BME280;5107;48.850;8.924;2022-10-31T02:40:12;97286.84;;;12.28;81.02
10135;BME280;5107;48.850;8.924;2022-10-31T02:43:26;97290.50;;;12.19;80.70
10135;BME280;5107;48.850;8.924;2022-10-31T02:46:00;97280.91;;;12.02;81.36
10135;BME280;5107;48.850;8.924;2022-10-31T02:48:37;97280.91;;;11.94;81.78
10135;BME280;5107;48.850;8.924;2022-10-31T02:51:06;97280.09;;;11.93;82.16
10135;BME280;5107;48.850;8.924;2022-10-31T02:53:36;97275.28;;;11.89;83.35
10135;BME280;5107;48.850;8.924;2022-10-31T02:56:11;97284.38;;;11.78;83.69
10135;BME280;5107;48.850;8.924;2022-10-31T02:58:42;97280.72;;;11.71;83.82
10135;BME280;5107;48.850;8.924;2022-10-31T03:01:43;97283.00;;;11.74;83.84
10135;BME280;5107;48.850;8.924;2022-10-31T03:07:23;97286.81;;;11.71;83.21
10135;BME280;5107;48.850;8.924;2022-10-31T03:10:04;97285.78;;;11.72;83.24
10135;BME280;5107;48.850;8.924;2022-10-31T03:12:38;97286.13;;;11.69;83.08
10135;BME280;5107;48.850;8.924;2022-10-31T03:15:14;97284.16;;;11.71;83.47
10135;BME280;5107;48.850;8.924;2022-10-31T03:17:52;97280.91;;;11.77;83.02
10135;BME280;5107;48.850;8.924;2022-10-31T03:20:30;97286.81;;;11.71;82.68
10135;BME280;5107;48.850;8.924;2022-10-31T03:23:01;97283.66;;;11.68;83.04
10135;BME280;5107;48.850;8.924;2022-10-31T03:25:32;97288.09;;;11.67;83.30
10135;BME280;5107;48.850;8.924;2022-10-31T03:28:02;97291.88;;;11.73;83.09
10135;BME280;5107;48.850;8.924;2022-10-31T03:30:34;97283.34;;;11.71;82.94
10135;BME280;5107;48.850;8.924;2022-10-31T03:33:07;97290.44;;;11.70;83.16
10135;BME280;5107;48.850;8.924;2022-10-31T03:35:42;97282.50;;;11.70;82.92
10135;BME280;5107;48.850;8.924;2022-10-31T03:38:12;97290.44;;;11.70;82.90
10135;BME280;5107;48.850;8.924;2022-10-31T03:40:43;97285.31;;;11.69;82.50
10135;BME280;5107;48.850;8.924;2022-10-31T03:43:15;97282.16;;;11.65;82.73
10135;BME280;5107;48.850;8.924;2022-10-31T03:45:46;97287.59;;;11.64;82.34
10135;BME280;5107;48.850;8.924;2022-10-31T03:48:16;97284.47;;;11.60;83.56
10135;BME280;5107;48.850;8.924;2022-10-31T03:50:50;97270.47;;;11.60;83.68
10135;BME280;5107;48.850;8.924;2022-10-31T03:53:25;97277.38;;;11.61;83.63
10135;BME280;5107;48.850;8.924;2022-10-31T03:55:59;97282.81;;;11.59;83.28
10135;BME280;5107;48.850;8.924;2022-10-31T03:58:32;97277.69;;;11.58;83.03
10135;BME280;5107;48.850;8.924;2022-10-31T04:01:06;97279.84;;;11.54;83.87
10135;BME280;5107;48.850;8.924;2022-10-31T04:03:38;97276.53;;;11.52;84.15
10135;BME280;5107;48.850;8.924;2022-10-31T04:06:12;97277.69;;;11.50;84.57
10135;BME280;5107;48.850;8.924;2022-10-31T04:08:48;97277.53;;;11.51;85.29
10135;BME280;5107;48.850;8.924;2022-10-31T04:11:21;97275.03;;;11.50;85.31
10135;BME280;5107;48.850;8.924;2022-10-31T04:14:12;97274.41;;;11.56;84.51
10135;BME280;5107;48.850;8.924;2022-10-31T04:16:40;97276.88;;;11.57;84.38
10135;BME280;5107;48.850;8.924;2022-10-31T04:19:10;97278.00;;;11.47;85.24
10135;BME280;5107;48.850;8.924;2022-10-31T04:21:39;97271.25;;;11.36;85.24
10135;BME280;5107;48.850;8.924;2022-10-31T04:24:09;97266.09;;;11.26;86.10
10135;BME280;5107;48.850;8.924;2022-10-31T04:26:37;97259.50;;;11.30;86.84
10135;BME280;5107;48.850;8.924;2022-10-31T04:29:04;97264.44;;;11.25;86.00
10135;BME280;5107;48.850;8.924;2022-10-31T04:31:31;97259.66;;;11.21;86.87
10135;BME280;5107;48.850;8.924;2022-10-31T04:33:58;97259.03;;;11.27;86.61
10135;BME280;5107;48.850;8.924;2022-10-31T04:36:26;97257.38;;;11.26;87.01
10135;BME280;5107;48.850;8.924;2022-10-31T04:38:54;97260.34;;;11.31;86.96
10135;BME280;5107;48.850;8.924;2022-10-31T04:41:33;97257.72;;;11.39;86.32
10135;BME280;5107;48.850;8.924;2022-10-31T04:44:03;97256.09;;;11.38;85.88
10135;BME280;5107;48.850;8.924;2022-10-31T04:46:32;97251.97;;;11.35;84.95
10135;BME280;5107;48.850;8.924;2022-10-31T04:48:59;97253.09;;;11.25;86.00
10135;BME280;5107;48.850;8.924;2022-10-31T04:51:26;97249.13;;;11.21;86.28
10135;BME280;5107;48.850;8.924;2022-10-31T04:53:58;97244.50;;;11.23;85.97
10135;BME280;5107;48.850;8.924;2022-10-31T04:56:54;97248.13;;;11.22;85.74
10135;BME280;5107;48.850;8.924;2022-10-31T04:59:22;97248.78;;;11.24;86.63
10135;BME280;5107;48.850;8.924;2022-10-31T05:01:52;97247.50;;;11.28;86.30
10135;BME280;5107;48.850;8.924;2022-10-31T05:04:41;97244.22;;;11.34;85.50
10135;BME280;5107;48.850;8.924;2022-10-31T05:07:08;97236.47;;;11.32;86.15
10135;BME280;5107;48.850;8.924;2022-10-31T05:09:39;97238.44;;;11.30;85.82
10135;BME280;5107;48.850;8.924;2022-10-31T05:12:06;97236.81;;;11.29;85.76
10135;BME280;5107;48.850;8.924;2022-10-31T05:14:52;97238.59;;;11.21;87.15
10135;BME280;5107;48.850;8.924;2022-10-31T05:17:45;97238.41;;;11.22;86.68
10135;BME280;5107;48.850;8.924;2022-10-31T05:20:41;97233.16;;;11.30;86.15
10135;BME280;5107;48.850;8.924;2022-10-31T05:23:26;97233.16;;;11.30;85.50
10135;BME280;5107;48.850;8.924;2022-10-31T05:25:55;97241.22;;;11.21;84.40
10135;BME280;5107;48.850;8.924;2022-10-31T05:28:22;97228.38;;;11.18;85.31
10135;BME280;5107;48.850;8.924;2022-10-31T05:30:49;97231.16;;;11.16;86.26
10135;BME280;5107;48.850;8.924;2022-10-31T05:33:16;97230.69;;;11.13;86.77
10135;BME280;5107;48.850;8.924;2022-10-31T05:36:02;97226.72;;;11.17;86.41
10135;BME280;5107;48.850;8.924;2022-10-31T05:38:41;97234.31;;;11.20;86.22
10135;BME280;5107;48.850;8.924;2022-10-31T05:41:20;97229.50;;;11.15;86.26
10135;BME280;5107;48.850;8.924;2022-10-31T05:43:48;97233.31;;;11.21;86.25
10135;BME280;5107;48.850;8.924;2022-10-31T05:46:18;97228.69;;;11.23;85.36
10135;BME280;5107;48.850;8.924;2022-10-31T05:49:05;97228.88;;;11.21;85.75
10135;BME280;5107;48.850;8.924;2022-10-31T05:52:07;97224.09;;;11.25;85.28
10135;BME280;5107;48.850;8.924;2022-10-31T05:54:40;97219.97;;;11.22;85.65
10135;BME280;5107;48.850;8.924;2022-10-31T05:57:09;97219.31;;;11.12;85.54
10135;BME280;5107;48.850;8.924;2022-10-31T05:59:36;97221.28;;;11.10;86.04
10135;BME280;5107;48.850;8.924;2022-10-31T06:02:03;97224.56;;;11.12;85.96
10135;BME280;5107;48.850;8.924;2022-10-31T06:04:49;97220.13;;;11.13;86.34
10135;BME280;5107;48.850;8.924;2022-10-31T06:07:16;97231.97;;;11.17;85.99
10135;BME280;5107;48.850;8.924;2022-10-31T06:09:43;97221.44;;;11.17;86.37
10135;BME280;5107;48.850;8.924;2022-10-31T06:12:12;97220.47;;;11.18;86.44
10135;BME280;5107;48.850;8.924;2022-10-31T06:15:12;97217.19;;;11.24;85.58
10135;BME280;5107;48.850;8.924;2022-10-31T06:17:41;97222.13;;;11.27;85.39
10135;BME280;5107;48.850;8.924;2022-10-31T06:20:10;97217.19;;;11.32;85.52
10135;BME280;5107;48.850;8.924;2022-10-31T06:22:49;97214.44;;;11.74;93.09
10135;BME280;5107;48.850;8.924;2022-10-31T06:25:17;97215.31;;;11.91;90.64
10135;BME280;5107;48.850;8.924;2022-10-31T06:27:49;97219.25;;;12.11;88.88
10135;BME280;5107;48.850;8.924;2022-10-31T06:30:19;97214.94;;;12.26;86.06
10135;BME280;5107;48.850;8.924;2022-10-31T06:32:47;97213.63;;;12.22;80.64
10135;BME280;5107;48.850;8.924;2022-10-31T06:35:15;97212.81;;;12.30;81.28
10135;BME280;5107;48.850;8.924;2022-10-31T06:37:42;97210.41;;;12.59;80.86
10135;BME280;5107;48.850;8.924;2022-10-31T06:40:26;97204.00;;;12.92;78.98
10135;BME280;5107;48.850;8.924;2022-10-31T06:43:19;97205.50;;;12.95;77.36
10135;BME280;5107;48.850;8.924;2022-10-31T06:45:46;97205.34;;;13.27;76.81
10135;BME280;5107;48.850;8.924;2022-10-31T06:48:21;97204.31;;;13.59;75.44
10135;BME280;5107;48.850;8.924;2022-10-31T06:51:15;97206.06;;;13.90;74.02
10135;BME280;5107;48.850;8.924;2022-10-31T06:53:43;97206.59;;;14.23;73.29
10135;BME280;5107;48.850;8.924;2022-10-31T06:56:11;97203.63;;;14.40;71.74
10135;BME280;5107;48.850;8.924;2022-10-31T06:58:46;97210.69;;;14.63;70.57
10135;BME280;5107;48.850;8.924;2022-10-31T07:01:13;97203.50;;;14.34;72.02
10135;BME280;5107;48.850;8.924;2022-10-31T07:03:40;97210.25;;;14.22;72.68
10135;BME280;5107;48.850;8.924;2022-10-31T07:06:07;97210.75;;;14.02;76.94
10135;BME280;5107;48.850;8.924;2022-10-31T07:08:35;97223.91;;;14.11;81.12
10135;BME280;5107;48.850;8.924;2022-10-31T07:11:02;97213.66;;;14.30;75.65
10135;BME280;5107;48.850;8.924;2022-10-31T07:13:30;97223.47;;;14.74;73.83
10135;BME280;5107;48.850;8.924;2022-10-31T07:16:06;97230.88;;;14.93;70.13
10135;BME280;5107;48.850;8.924;2022-10-31T07:18:35;97224.03;;;14.84;70.28
10135;BME280;5107;48.850;8.924;2022-10-31T07:21:03;97227.03;;;14.96;69.48
10135;BME280;5107;48.850;8.924;2022-10-31T07:23:31;97224.72;;;15.07;68.94
10135;BME280;5107;48.850;8.924;2022-10-31T07:26:17;97226.75;;;15.41;68.56
10135;BME280;5107;48.850;8.924;2022-10-31T07:28:46;97229.59;;;15.54;67.50
10135;BME280;5107;48.850;8.924;2022-10-31T07:31:16;97225.00;;;15.48;67.53
10135;BME280;5107;48.850;8.924;2022-10-31T07:33:43;97232.59;;;15.01;68.82
10135;BME280;5107;48.850;8.924;2022-10-31T07:36:39;97232.03;;;14.91;70.79
10135;BME280;5107;48.850;8.924;2022-10-31T07:39:06;97233.97;;;15.11;69.58
10135;BME280;5107;48.850;8.924;2022-10-31T07:41:34;97239.00;;;15.42;69.29
10135;BME280;5107;48.850;8.924;2022-10-31T07:44:02;97239.13;;;15.34;70.04
10135;BME280;5107;48.850;8.924;2022-10-31T07:46:30;97238.19;;;15.06;69.57
10135;BME280;5107;48.850;8.924;2022-10-31T07:49:16;97240.47;;;14.79;70.90
10135;BME280;5107;48.850;8.924;2022-10-31T07:52:12;97240.66;;;14.78;72.23
10135;BME280;5107;48.850;8.924;2022-10-31T07:55:03;97239.00;;;14.92;73.26
10135;BME280;5107;48.850;8.924;2022-10-31T07:57:31;97238.06;;;15.29;71.24
10135;BME280;5107;48.850;8.924;2022-10-31T07:59:58;97242.56;;;15.64;68.77
10135;BME280;5107;48.850;8.924;2022-10-31T08:02:26;97235.34;;;15.58;69.42
10135;BME280;5107;48.850;8.924;2022-10-31T08:05:13;97241.47;;;15.44;70.73
10135;BME280;5107;48.850;8.924;2022-10-31T08:07:59;97236.34;;;15.42;70.95
10135;BME280;5107;48.850;8.924;2022-10-31T08:10:27;97239.84;;;15.43;70.85
10135;BME280;5107;48.850;8.924;2022-10-31T08:12:56;97235.72;;;15.55;70.17
10135;BME280;5107;48.850;8.924;2022-10-31T08:15:24;97229.69;;;15.32;71.70
10135;BME280;5107;48.850;8.924;2022-10-31T08:17:53;97230.13;;;15.50;72.05
10135;BME280;5107;48.850;8.924;2022-10-31T08:20:21;97226.31;;;15.38;72.01
10135;BME280;5107;48.850;8.924;2022-10-31T08:22:56;97225.88;;;15.34;72.43
10135;BME280;5107;48.850;8.924;2022-10-31T08:25:24;97215.00;;;15.29;72.79
10135;BME280;5107;48.850;8.924;2022-10-31T08:27:53;97209.31;;;15.32;73.03
10135;BME280;5107;48.850;8.924;2022-10-31T08:30:23;97213.06;;;15.38;72.97
10135;BME280;5107;48.850;8.924;2022-10-31T08:33:15;97217.16;;;15.40;73.85
10135;BME280;5107;48.850;8.924;2022-10-31T08:36:12;97208.28;;;15.48;74.16
10135;BME280;5107;48.850;8.924;2022-10-31T08:38:56;97200.25;;;15.56;72.78
10135;BME280;5107;48.850;8.924;2022-10-31T08:41:24;97198.84;;;15.60;73.66
10135;BME280;5107;48.850;8.924;2022-10-31T08:43:51;97198.34;;;15.71;73.54
10135;BME280;5107;48.850;8.924;2022-10-31T08:46:20;97199.41;;;15.98;73.17
10135;BME280;5107;48.850;8.924;2022-10-31T08:48:49;97199.38;;;16.19;71.98
10135;BME280;5107;48.850;8.924;2022-10-31T08:51:17;97198.25;;;16.35;71.37
10135;BME280;5107;48.850;8.924;2022-10-31T08:53:44;97195.72;;;16.55;70.00
10135;BME280;5107;48.850;8.924;2022-10-31T08:56:30;97199.81;;;16.85;69.13
10135;BME280;5107;48.850;8.924;2022-10-31T08:58:59;97200.22;;;17.30;68.12
10135;BME280;5107;48.850;8.924;2022-10-31T09:02:02;97192.25;;;17.36;68.42
10135;BME280;5107;48.850;8.924;2022-10-31T09:04:30;97192.50;;;17.61;66.89
10135;BME280;5107;48.850;8.924;2022-10-31T09:06:57;97185.38;;;17.75;65.38
10135;BME280;5107;48.850;8.924;2022-10-31T09:09:25;97186.75;;;17.58;66.78
10135;BME280;5107;48.850;8.924;2022-10-31T09:11:52;97184.56;;;17.74;68.01
10135;BME280;5107;48.850;8.924;2022-10-31T09:14:39;97182.72;;;18.08;66.45
10135;BME280;5107;48.850;8.924;2022-10-31T09:17:46;97178.63;;;18.25;65.24
10135;BME280;5107;48.850;8.924;2022-10-31T09:20:22;97185.19;;;18.29;64.65
10135;BME280;5107;48.850;8.924;2022-10-31T09:22:56;97179.84;;;18.36;65.28
10135;BME280;5107;48.850;8.924;2022-10-31T09:25:24;97184.34;;;18.55;62.90
10135;BME280;5107;48.850;8.924;2022-10-31T09:28:14;97181.44;;;18.76;62.06
10135;BME280;5107;48.850;8.924;2022-10-31T09:30:42;97181.50;;;18.63;61.67
10135;BME280;5107;48.850;8.924;2022-10-31T09:33:17;97183.72;;;18.53;62.74
10135;BME280;5107;48.850;8.924;2022-10-31T09:35:57;97182.13;;;18.39;66.29
10135;BME280;5107;48.850;8.924;2022-10-31T09:38:25;97179.41;;;18.52;67.13
10135;BME280;5107;48.850;8.924;2022-10-31T09:41:03;97182.25;;;18.90;65.43
10135;BME280;5107;48.850;8.924;2022-10-31T09:43:39;97184.69;;;18.91;64.20
10135;BME280;5107;48.850;8.924;2022-10-31T09:46:16;97185.13;;;18.82;64.76
10135;BME280;5107;48.850;8.924;2022-10-31T09:49:04;97183.50;;;18.68;64.29
10135;BME280;5107;48.850;8.924;2022-10-31T09:51:55;97183.72;;;18.73;64.69
10135;BME280;5107;48.850;8.924;2022-10-31T09:54:34;97189.66;;;18.75;65.11
10135;BME280;5107;48.850;8.924;2022-10-31T09:57:06;97186.97;;;18.88;63.96
10135;BME280;5107;48.850;8.924;2022-10-31T09:59:40;97184.28;;;18.88;63.80
10135;BME280;5107;48.850;8.924;2022-10-31T10:02:16;97194.94;;;18.94;65.58
10135;BME280;5107;48.850;8.924;2022-10-31T10:04:53;97186.41;;;19.24;63.35
10135;BME280;5107;48.850;8.924;2022-10-31T10:07:32;97179.84;;;19.64;63.51
10135;BME280;5107;48.850;8.924;2022-10-31T10:10:28;97180.75;;;19.52;63.69
10135;BME280;5107;48.850;8.924;2022-10-31T10:16:38;97176.91;;;19.41;61.84
10135;BME280;5107;48.850;8.924;2022-10-31T10:19:25;97164.31;;;19.55;62.79
10135;BME280;5107;48.850;8.924;2022-10-31T10:22:05;97163.44;;;19.61;62.62
10135;BME280;5107;48.850;8.924;2022-10-31T10:24:55;97164.66;;;19.65;63.21
10135;BME280;5107;48.850;8.924;2022-10-31T10:27:41;97162.66;;;19.54;63.93
10135;BME280;5107;48.850;8.924;2022-10-31T10:30:15;97157.75;;;19.51;63.93
10135;BME280;5107;48.850;8.924;2022-10-31T10:32:46;97157.28;;;19.22;65.31
10135;BME280;5107;48.850;8.924;2022-10-31T10:35:24;97159.41;;;19.01;65.69
10135;BME280;5107;48.850;8.924;2022-10-31T10:37:57;97149.34;;;19.03;66.14
10135;BME280;5107;48.850;8.924;2022-10-31T10:40:28;97153.69;;;18.97;66.25
10135;BME280;5107;48.850;8.924;2022-10-31T10:43:08;97151.19;;;19.02;66.54
10135;BME280;5107;48.850;8.924;2022-10-31T10:46:19;97157.44;;;19.27;64.70
10135;BME280;5107;48.850;8.924;2022-10-31T10:49:15;97152.25;;;19.39;63.08
10135;BME280;5107;48.850;8.924;2022-10-31T10:51:46;97149.59;;;19.70;61.26
10135;BME280;5107;48.850;8.924;2022-10-31T10:54:41;97144.31;;;19.64;58.85
10135;BME280;5107;48.850;8.924;2022-10-31T10:57:32;97137.63;;;19.42;57.45
10135;BME280;5107;48.850;8.924;2022-10-31T11:00:18;97137.19;;;19.13;56.60
10135;BME280;5107;48.850;8.924;2022-10-31T11:02:45;97138.47;;;19.04;56.94
10135;BME280;5107;48.850;8.924;2022-10-31T11:05:21;97137.06;;;18.95;57.03
10135;BME280;5107;48.850;8.924;2022-10-31T11:07:49;97121.13;;;18.82;56.85
10135;BME280;5107;48.850;8.924;2022-10-31T11:10:17;97110.94;;;18.66;57.81
10135;BME280;5107;48.850;8.924;2022-10-31T11:13:07;97110.94;;;18.59;61.64
10135;BME280;5107;48.850;8.924;2022-10-31T11:15:55;97102.31;;;18.50;65.92
10135;BME280;5107;48.850;8.924;2022-10-31T11:18:26;97100.13;;;18.41;65.32
10135;BME280;5107;48.850;8.924;2022-10-31T11:20:56;97095.59;;;18.35;67.10
10135;BME280;5107;48.850;8.924;2022-10-31T11:23:25;97100.31;;;18.39;66.77
10135;BME280;5107;48.850;8.924;2022-10-31T11:25:56;97097.44;;;18.34;67.58
10135;BME280;5107;48.850;8.924;2022-10-31T11:28:26;97101.16;;;18.40;66.69
10135;BME280;5107;48.850;8.924;2022-10-31T11:30:56;97086.78;;;18.41;66.32
10135;BME280;5107;48.850;8.924;2022-10-31T11:33:30;97095.19;;;18.38;65.78
10135;BME280;5107;48.850;8.924;2022-10-31T11:36:00;97095.84;;;18.27;65.34
10135;BME280;5107;48.850;8.924;2022-10-31T11:38:34;97099.56;;;17.93;67.76
10135;BME280;5107;48.850;8.924;2022-10-31T11:41:11;97080.28;;;18.17;66.81
10135;BME280;5107;48.850;8.924;2022-10-31T11:43:48;97087.91;;;18.07;67.44
10135;BME280;5107;48.850;8.924;2022-10-31T11:46:21;97086.81;;;18.28;66.69
10135;BME280;5107;48.850;8.924;2022-10-31T11:49:00;97079.81;;;18.46;65.95
10135;BME280;5107;48.850;8.924;2022-10-31T11:51:30;97078.53;;;18.55;65.94
10135;BME280;5107;48.850;8.924;2022-10-31T11:53:59;97083.22;;;18.67;66.19
10135;BME280;5107;48.850;8.924;2022-10-31T11:56:40;97073.59;;;18.72;65.14
10135;BME280;5107;48.850;8.924;2022-10-31T11:59:22;97072.88;;;18.90;65.62
10135;BME280;5107;48.850;8.924;2022-10-31T12:01:52;97069.84;;;18.80;63.89
10135;BME280;5107;48.850;8.924;2022-10-31T12:04:30;97067.88;;;18.62;63.81
10135;BME280;5107;48.850;8.924;2022-10-31T12:06:59;97067.03;;;18.68;65.47
10135;BME280;5107;48.850;8.924;2022-10-31T12:09:28;97060.50;;;18.64;64.15
10135;BME280;5107;48.850;8.924;2022-10-31T12:12:32;97049.81;;;18.64;63.72
10135;BME280;5107;48.850;8.924;2022-10-31T12:15:18;97044.88;;;18.68;64.19
10135;BME280;5107;48.850;8.924;2022-10-31T12:17:56;97047.34;;;18.69;64.08
10135;BME280;5107;48.850;8.924;2022-10-31T12:20:34;97043.72;;;18.57;64.51
10135;BME280;5107;48.850;8.924;2022-10-31T12:23:25;97038.56;;;18.55;64.43
10135;BME280;5107;48.850;8.924;2022-10-31T12:26:01;97044.94;;;18.48;65.19
10135;BME280;5107;48.850;8.924;2022-10-31T12:29:05;97028.94;;;18.48;65.35
10135;BME280;5107;48.850;8.924;2022-10-31T12:31:46;97026.88;;;18.50;65.30
10135;BME280;5107;48.850;8.924;2022-10-31T12:34:48;97033.03;;;18.50;65.63
10135;BME280;5107;48.850;8.924;2022-10-31T12:37:38;97031.81;;;18.46;66.51
10135;BME280;5107;48.850;8.924;2022-10-31T12:40:31;97019.13;;;18.42;66.28
10135;BME280;5107;48.850;8.924;2022-10-31T12:43:16;97021.19;;;18.40;66.68
10135;BME280;5107;48.850;8.924;2022-10-31T12:45:53;97016.09;;;18.32;65.86
10135;BME280;5107;48.850;8.924;2022-10-31T12:48:46;97011.78;;;18.31;66.00
10135;BME280;5107;48.850;8.924;2022-10-31T12:51:26;97003.63;;;18.19;66.32
10135;BME280;5107;48.850;8.924;2022-10-31T12:54:19;96991.38;;;18.05;66.84
10135;BME280;5107;48.850;8.924;2022-10-31T12:56:57;96982.16;;;18.07;67.27
10135;BME280;5107;48.850;8.924;2022-10-31T12:59:30;96981.59;;;17.99;67.69
10135;BME280;5107;48.850;8.924;2022-10-31T13:02:04;96976.47;;;17.91;67.95
10135;BME280;5107;48.850;8.924;2022-10-31T13:04:44;96965.22;;;17.89;67.70
10135;BME280;5107;48.850;8.924;2022-10-31T13:07:18;96965.00;;;17.83;68.13
10135;BME280;5107;48.850;8.924;2022-10-31T13:09:54;96961.94;;;17.87;68.35
10135;BME280;5107;48.850;8.924;2022-10-31T13:12:24;96959.00;;;18.01;68.41
10135;BME280;5107;48.850;8.924;2022-10-31T13:14:56;96949.63;;;17.92;68.01
10135;BME280;5107;48.850;8.924;2022-10-31T13:17:30;96947.97;;;17.91;68.40
10135;BME280;5107;48.850;8.924;2022-10-31T13:20:19;96955.31;;;18.02;68.96
10135;BME280;5107;48.850;8.924;2022-10-31T13:22:52;96951.56;;;18.16;68.94
10135;BME280;5107;48.850;8.924;2022-10-31T13:25:24;96956.09;;;18.23;68.54
10135;BME280;5107;48.850;8.924;2022-10-31T13:27:56;96966.94;;;18.21;69.75
10135;BME280;5107;48.850;8.924;2022-10-31T13:30:28;96965.94;;;18.09;68.56
10135;BME280;5107;48.850;8.924;2022-10-31T13:33:00;96964.94;;;18.61;68.13
10135;BME280;5107;48.850;8.924;2022-10-31T13:35:37;96955.16;;;19.11;66.21
10135;BME280;5107;48.850;8.924;2022-10-31T13:38:19;96950.94;;;19.72;62.88
10135;BME280;5107;48.850;8.924;2022-10-31T13:40:54;96943.31;;;19.93;63.41
10135;BME280;5107;48.850;8.924;2022-10-31T13:43:34;96943.28;;;20.30;61.45
10135;BME280;5107;48.850;8.924;2022-10-31T13:46:25;96948.47;;;20.43;61.67
10135;BME280;5107;48.850;8.924;2022-10-31T13:48:52;96949.75;;;20.22;61.54
10135;BME280;5107;48.850;8.924;2022-10-31T13:51:28;96943.09;;;19.95;62.43
10135;BME280;5107;48.850;8.924;2022-10-31T13:54:01;96941.06;;;20.08;62.00
10135;BME280;5107;48.850;8.924;2022-10-31T13:56:34;96942.69;;;20.09;61.55
10135;BME280;5107;48.850;8.924;2022-10-31T13:59:19;96928.03;;;19.82;62.99